Weather at Henderson Executive Airport

Public forecast

Using degrees Fahrenheit for public forecast. Weather courtesy of forecast.io.

Current aviation weather report (METAR) for Henderson Executive Airport

2024/07/19 07:56 (retrieved 8 minutes ago)

KHND 190756Z AUTO 22003KT 10SM SCT120 31/14 A3002 RMK AO2 SLP147 T03060144

Aviation forecast (TAF) for Henderson Executive Airport

2024/07/19 06:22 (retrieved 2 hours ago)

TAF KHND 190520Z 1906/2006 20007KT P6SM SCT150 FM191400 VRB06KT P6SM SCT150 FM192000 21009KT P6SM SCT150 FM192200 22010KT P6SM VCTS SCT120CB FM200200 25010KT P6SM SCT120 FM200500 20007KT P6SM SCT150